sensor_id;sensor_type;location;lat;lon;timestamp;pressure;altitude;pressure_sealevel;temperature;humidity
70546;BME280;58098;51.680;5.134;2023-05-19T00:01:04;102717.00;;;9.22;100.00
70546;BME280;58098;51.680;5.134;2023-05-19T00:03:32;102731.22;;;9.15;100.00
70546;BME280;58098;51.680;5.134;2023-05-19T00:06:00;102725.53;;;9.05;100.00
70546;BME280;58098;51.680;5.134;2023-05-19T00:08:29;102735.69;;;9.11;100.00
70546;BME280;58098;51.680;5.134;2023-05-19T00:10:56;102729.75;;;9.08;100.00
70546;BME280;58098;51.680;5.134;2023-05-19T00:13:22;102722.28;;;9.00;100.00
70546;BME280;58098;51.680;5.134;2023-05-19T00:15:49;102706.47;;;9.05;100.00
70546;BME280;58098;51.680;5.134;2023-05-19T00:18:15;102706.50;;;9.03;100.00
70546;BME280;58098;51.680;5.134;2023-05-19T00:20:41;102702.28;;;9.01;100.00
70546;BME280;58098;51.680;5.134;2023-05-19T00:23:07;102704.00;;;9.02;100.00
70546;BME280;58098;51.680;5.134;2023-05-19T00:25:32;102694.03;;;8.91;100.00
70546;BME280;58098;51.680;5.134;2023-05-19T00:27:57;102691.41;;;8.91;100.00
70546;BME280;58098;51.680;5.134;2023-05-19T00:30:23;102703.66;;;8.89;100.00
70546;BME280;58098;51.680;5.134;2023-05-19T00:32:49;102690.06;;;8.83;100.00
70546;BME280;58098;51.680;5.134;2023-05-19T00:35:15;102698.13;;;8.77;100.00
70546;BME280;58098;51.680;5.134;2023-05-19T00:37:40;102676.44;;;8.56;100.00
70546;BME280;58098;51.680;5.134;2023-05-19T00:40:06;102694.38;;;8.62;100.00
70546;BME280;58098;51.680;5.134;2023-05-19T00:42:32;102701.22;;;8.64;100.00
70546;BME280;58098;51.680;5.134;2023-05-19T00:44:57;102697.00;;;8.62;100.00
70546;BME280;58098;51.680;5.134;2023-05-19T00:47:23;102698.16;;;8.55;100.00
70546;BME280;58098;51.680;5.134;2023-05-19T00:49:48;102707.69;;;8.54;100.00
70546;BME280;58098;51.680;5.134;2023-05-19T00:52:13;102697.59;;;8.47;100.00
70546;BME280;58098;51.680;5.134;2023-05-19T00:54:39;102695.19;;;8.42;100.00
70546;BME280;58098;51.680;5.134;2023-05-19T00:57:04;102694.41;;;8.40;100.00
70546;BME280;58098;51.680;5.134;2023-05-19T00:59:30;102700.66;;;8.36;100.00
70546;BME280;58098;51.680;5.134;2023-05-19T01:01:55;102677.69;;;8.24;100.00
70546;BME280;58098;51.680;5.134;2023-05-19T01:04:21;102677.06;;;8.18;100.00
70546;BME280;58098;51.680;5.134;2023-05-19T01:06:50;102700.44;;;8.19;100.00
70546;BME280;58098;51.680;5.134;2023-05-19T01:09:22;102698.72;;;8.18;100.00
70546;BME280;58098;51.680;5.134;2023-05-19T01:11:49;102697.88;;;8.18;100.00
70546;BME280;58098;51.680;5.134;2023-05-19T01:14:15;102683.72;;;8.03;100.00
70546;BME280;58098;51.680;5.134;2023-05-19T01:16:59;102691.59;;;8.02;100.00
70546;BME280;58098;51.680;5.134;2023-05-19T01:19:47;102706.81;;;8.11;100.00
70546;BME280;58098;51.680;5.134;2023-05-19T01:22:26;102705.25;;;8.07;100.00
70546;BME280;58098;51.680;5.134;2023-05-19T01:28:09;102699.47;;;8.00;100.00
70546;BME280;58098;51.680;5.134;2023-05-19T01:30:47;102695.22;;;7.97;100.00
70546;BME280;58098;51.680;5.134;2023-05-19T01:33:13;102682.63;;;7.87;100.00
70546;BME280;58098;51.680;5.134;2023-05-19T01:35:40;102694.47;;;7.94;100.00
70546;BME280;58098;51.680;5.134;2023-05-19T01:38:08;102693.88;;;7.87;100.00
70546;BME280;58098;51.680;5.134;2023-05-19T01:40:35;102684.56;;;7.82;100.00
70546;BME280;58098;51.680;5.134;2023-05-19T01:43:01;102689.03;;;7.78;100.00
70546;BME280;58098;51.680;5.134;2023-05-19T01:45:28;102671.84;;;7.74;100.00
70546;BME280;58098;51.680;5.134;2023-05-19T01:47:57;102675.47;;;7.70;100.00
70546;BME280;58098;51.680;5.134;2023-05-19T01:50:22;102678.97;;;7.69;100.00
70546;BME280;58098;51.680;5.134;2023-05-19T01:52:48;102687.72;;;7.67;100.00
70546;BME280;58098;51.680;5.134;2023-05-19T01:55:14;102672.44;;;7.59;100.00
70546;BME280;58098;51.680;5.134;2023-05-19T02:08:42;102679.88;;;7.45;100.00
70546;BME280;58098;51.680;5.134;2023-05-19T02:11:16;102675.63;;;7.43;100.00
70546;BME280;58098;51.680;5.134;2023-05-19T02:13:45;102669.31;;;7.26;100.00
70546;BME280;58098;51.680;5.134;2023-05-19T02:16:13;102688.75;;;7.40;100.00
70546;BME280;58098;51.680;5.134;2023-05-19T02:18:40;102680.97;;;7.40;100.00
70546;BME280;58098;51.680;5.134;2023-05-19T02:21:10;102678.56;;;7.33;100.00
70546;BME280;58098;51.680;5.134;2023-05-19T02:23:38;102683.66;;;7.37;100.00
70546;BME280;58098;51.680;5.134;2023-05-19T02:26:03;102683.75;;;7.33;100.00
70546;BME280;58098;51.680;5.134;2023-05-19T02:28:29;102675.19;;;7.31;100.00
70546;BME280;58098;51.680;5.134;2023-05-19T02:30:54;102664.97;;;7.27;100.00
70546;BME280;58098;51.680;5.134;2023-05-19T02:33:19;102655.53;;;7.24;100.00
70546;BME280;58098;51.680;5.134;2023-05-19T02:35:48;102648.72;;;7.22;100.00
70546;BME280;58098;51.680;5.134;2023-05-19T02:38:14;102659.81;;;7.25;100.00
70546;BME280;58098;51.680;5.134;2023-05-19T02:40:39;102659.81;;;7.25;100.00
70546;BME280;58098;51.680;5.134;2023-05-19T02:43:05;102648.88;;;7.17;100.00
70546;BME280;58098;51.680;5.134;2023-05-19T02:45:30;102655.66;;;7.21;100.00
70546;BME280;58098;51.680;5.134;2023-05-19T02:47:55;102662.75;;;7.16;100.00
70546;BME280;58098;51.680;5.134;2023-05-19T02:50:21;102636.94;;;7.12;100.00
70546;BME280;58098;51.680;5.134;2023-05-19T02:52:46;102650.03;;;7.09;100.00
70546;BME280;58098;51.680;5.134;2023-05-19T02:55:12;102656.06;;;7.09;100.00
70546;BME280;58098;51.680;5.134;2023-05-19T02:57:41;102652.59;;;7.10;100.00
70546;BME280;58098;51.680;5.134;2023-05-19T03:00:06;102640.06;;;6.98;100.00
70546;BME280;58098;51.680;5.134;2023-05-19T03:02:32;102643.53;;;6.97;100.00
70546;BME280;58098;51.680;5.134;2023-05-19T03:04:58;102655.31;;;7.06;100.00
70546;BME280;58098;51.680;5.134;2023-05-19T03:07:25;102650.25;;;7.03;100.00
70546;BME280;58098;51.680;5.134;2023-05-19T03:09:51;102635.06;;;6.92;100.00
70546;BME280;58098;51.680;5.134;2023-05-19T03:12:17;102643.47;;;6.99;100.00
70546;BME280;58098;51.680;5.134;2023-05-19T03:14:42;102642.84;;;6.92;100.00
70546;BME280;58098;51.680;5.134;2023-05-19T03:17:07;102638.78;;;6.85;100.00
70546;BME280;58098;51.680;5.134;2023-05-19T03:19:34;102641.38;;;6.85;100.00
70546;BME280;58098;51.680;5.134;2023-05-19T03:21:59;102635.28;;;6.86;100.00
70546;BME280;58098;51.680;5.134;2023-05-19T03:24:25;102637.19;;;6.81;100.00
70546;BME280;58098;51.680;5.134;2023-05-19T03:26:50;102655.03;;;6.90;100.00
70546;BME280;58098;51.680;5.134;2023-05-19T03:29:15;102637.13;;;6.83;100.00
70546;BME280;58098;51.680;5.134;2023-05-19T03:31:41;102653.44;;;6.86;100.00
70546;BME280;58098;51.680;5.134;2023-05-19T03:34:06;102655.28;;;6.83;100.00
70546;BME280;58098;51.680;5.134;2023-05-19T03:36:32;102638.34;;;6.73;100.00
70546;BME280;58098;51.680;5.134;2023-05-19T03:39:04;102648.25;;;6.86;100.00
70546;BME280;58098;51.680;5.134;2023-05-19T03:41:30;102640.94;;;6.73;100.00
70546;BME280;58098;51.680;5.134;2023-05-19T03:43:55;102652.06;;;6.76;100.00
70546;BME280;58098;51.680;5.134;2023-05-19T03:46:20;102648.56;;;6.77;100.00
70546;BME280;58098;51.680;5.134;2023-05-19T03:48:46;102651.25;;;6.74;100.00
70546;BME280;58098;51.680;5.134;2023-05-19T03:51:11;102652.88;;;6.77;100.00
70546;BME280;58098;51.680;5.134;2023-05-19T03:53:37;102651.16;;;6.77;100.00
70546;BME280;58098;51.680;5.134;2023-05-19T03:56:02;102646.03;;;6.76;100.00
70546;BME280;58098;51.680;5.134;2023-05-19T03:58:28;102638.41;;;6.71;100.00
70546;BME280;58098;51.680;5.134;2023-05-19T04:00:54;102649.25;;;6.82;100.00
70546;BME280;58098;51.680;5.134;2023-05-19T04:03:19;102652.75;;;6.81;100.00
70546;BME280;58098;51.680;5.134;2023-05-19T04:05:45;102649.31;;;6.81;100.00
70546;BME280;58098;51.680;5.134;2023-05-19T04:08:10;102643.91;;;6.87;100.00
70546;BME280;58098;51.680;5.134;2023-05-19T04:10:35;102653.44;;;6.86;100.00
70546;BME280;58098;51.680;5.134;2023-05-19T04:13:01;102644.84;;;6.84;100.00
70546;BME280;58098;51.680;5.134;2023-05-19T04:15:26;102650.00;;;6.86;100.00
70546;BME280;58098;51.680;5.134;2023-05-19T04:17:51;102638.97;;;6.79;100.00
70546;BME280;58098;51.680;5.134;2023-05-19T04:20:17;102658.47;;;6.91;100.00
70546;BME280;58098;51.680;5.134;2023-05-19T04:22:42;102639.81;;;6.80;100.00
70546;BME280;58098;51.680;5.134;2023-05-19T04:25:08;102656.69;;;6.91;100.00
70546;BME280;58098;51.680;5.134;2023-05-19T04:27:33;102645.66;;;6.86;100.00
70546;BME280;58098;51.680;5.134;2023-05-19T04:30:04;102642.09;;;6.89;100.00
70546;BME280;58098;51.680;5.134;2023-05-19T04:32:29;102649.50;;;6.99;100.00
70546;BME280;58098;51.680;5.134;2023-05-19T04:34:55;102635.91;;;6.93;100.00
70546;BME280;58098;51.680;5.134;2023-05-19T04:37:23;102639.13;;;6.99;100.00
70546;BME280;58098;51.680;5.134;2023-05-19T04:39:50;102637.31;;;7.01;100.00
70546;BME280;58098;51.680;5.134;2023-05-19T04:42:16;102646.66;;;7.07;100.00
70546;BME280;58098;51.680;5.134;2023-05-19T04:44:43;102644.00;;;7.08;100.00
70546;BME280;58098;51.680;5.134;2023-05-19T04:47:09;102647.41;;;7.10;100.00
70546;BME280;58098;51.680;5.134;2023-05-19T04:49:35;102667.72;;;7.22;100.00
70546;BME280;58098;51.680;5.134;2023-05-19T04:52:07;102658.81;;;7.29;100.00
70546;BME280;58098;51.680;5.134;2023-05-19T04:54:35;102665.47;;;7.37;100.00
70546;BME280;58098;51.680;5.134;2023-05-19T04:57:00;102654.34;;;7.33;100.00
70546;BME280;58098;51.680;5.134;2023-05-19T04:59:26;102655.09;;;7.37;100.00
70546;BME280;58098;51.680;5.134;2023-05-19T05:01:51;102669.31;;;7.50;100.00
70546;BME280;58098;51.680;5.134;2023-05-19T05:04:16;102666.50;;;7.56;100.00
70546;BME280;58098;51.680;5.134;2023-05-19T05:06:42;102664.47;;;7.64;100.00
70546;BME280;58098;51.680;5.134;2023-05-19T05:09:12;102645.63;;;7.59;100.00
70546;BME280;58098;51.680;5.134;2023-05-19T05:11:38;102668.56;;;7.69;100.00
70546;BME280;58098;51.680;5.134;2023-05-19T05:14:04;102659.72;;;7.75;100.00
70546;BME280;58098;51.680;5.134;2023-05-19T05:16:29;102669.75;;;7.84;100.00
70546;BME280;58098;51.680;5.134;2023-05-19T05:18:55;102676.56;;;7.86;100.00
70546;BME280;58098;51.680;5.134;2023-05-19T05:21:21;102657.50;;;7.87;100.00
70546;BME280;58098;51.680;5.134;2023-05-19T05:23:49;102669.44;;;7.91;100.00
70546;BME280;58098;51.680;5.134;2023-05-19T05:26:18;102662.22;;;7.99;100.00
70546;BME280;58098;51.680;5.134;2023-05-19T05:28:45;102673.78;;;8.14;100.00
70546;BME280;58098;51.680;5.134;2023-05-19T05:31:10;102669.34;;;8.16;100.00
70546;BME280;58098;51.680;5.134;2023-05-19T05:33:36;102674.06;;;8.30;100.00
70546;BME280;58098;51.680;5.134;2023-05-19T05:36:02;102664.47;;;8.30;100.00
70546;BME280;58098;51.680;5.134;2023-05-19T05:38:28;102668.47;;;8.39;100.00
70546;BME280;58098;51.680;5.134;2023-05-19T05:40:53;102669.00;;;8.47;100.00
70546;BME280;58098;51.680;5.134;2023-05-19T05:43:19;102670.31;;;8.57;100.00
70546;BME280;58098;51.680;5.134;2023-05-19T05:45:44;102671.81;;;8.62;100.00
70546;BME280;58098;51.680;5.134;2023-05-19T05:48:10;102673.00;;;8.76;100.00
70546;BME280;58098;51.680;5.134;2023-05-19T05:50:35;102682.13;;;8.86;100.00
70546;BME280;58098;51.680;5.134;2023-05-19T05:53:02;102683.41;;;8.96;100.00
70546;BME280;58098;51.680;5.134;2023-05-19T05:55:28;102677.19;;;9.00;100.00
70546;BME280;58098;51.680;5.134;2023-05-19T05:57:53;102670.78;;;9.07;100.00
70546;BME280;58098;51.680;5.134;2023-05-19T06:00:21;102667.84;;;9.14;100.00
70546;BME280;58098;51.680;5.134;2023-05-19T06:02:48;102674.38;;;9.24;100.00
70546;BME280;58098;51.680;5.134;2023-05-19T06:05:17;102672.97;;;9.36;100.00
70546;BME280;58098;51.680;5.134;2023-05-19T06:07:42;102673.66;;;9.40;100.00
70546;BME280;58098;51.680;5.134;2023-05-19T06:10:08;102670.38;;;9.36;100.00
70546;BME280;58098;51.680;5.134;2023-05-19T06:12:34;102670.88;;;9.44;100.00
70546;BME280;58098;51.680;5.134;2023-05-19T06:15:01;102677.75;;;9.45;100.00
70546;BME280;58098;51.680;5.134;2023-05-19T06:17:26;102667.56;;;9.41;100.00
70546;BME280;58098;51.680;5.134;2023-05-19T06:19:52;102687.75;;;9.54;100.00
70546;BME280;58098;51.680;5.134;2023-05-19T06:22:18;102683.53;;;9.52;100.00
70546;BME280;58098;51.680;5.134;2023-05-19T06:24:43;102689.34;;;9.58;100.00
70546;BME280;58098;51.680;5.134;2023-05-19T06:27:08;102673.06;;;9.53;100.00
70546;BME280;58098;51.680;5.134;2023-05-19T06:29:34;102681.44;;;9.60;100.00
70546;BME280;58098;51.680;5.134;2023-05-19T06:31:59;102676.00;;;9.64;100.00
70546;BME280;58098;51.680;5.134;2023-05-19T06:34:25;102672.28;;;9.70;100.00
70546;BME280;58098;51.680;5.134;2023-05-19T06:36:50;102670.09;;;9.79;100.00
70546;BME280;58098;51.680;5.134;2023-05-19T06:39:16;102691.88;;;9.97;100.00
70546;BME280;58098;51.680;5.134;2023-05-19T06:41:41;102690.75;;;10.03;100.00
70546;BME280;58098;51.680;5.134;2023-05-19T06:44:06;102685.22;;;10.09;100.00
70546;BME280;58098;51.680;5.134;2023-05-19T06:46:34;102687.28;;;10.21;100.00
70546;BME280;58098;51.680;5.134;2023-05-19T06:49:00;102680.19;;;10.24;100.00
70546;BME280;58098;51.680;5.134;2023-05-19T06:51:25;102694.16;;;10.40;100.00
70546;BME280;58098;51.680;5.134;2023-05-19T06:53:51;102684.13;;;10.50;100.00
70546;BME280;58098;51.680;5.134;2023-05-19T06:56:16;102689.50;;;10.64;100.00
70546;BME280;58098;51.680;5.134;2023-05-19T06:58:43;102690.75;;;10.74;100.00
70546;BME280;58098;51.680;5.134;2023-05-19T07:01:08;102682.44;;;10.83;100.00
70546;BME280;58098;51.680;5.134;2023-05-19T07:03:33;102691.19;;;10.99;100.00
70546;BME280;58098;51.680;5.134;2023-05-19T07:05:59;102682.88;;;11.08;100.00
70546;BME280;58098;51.680;5.134;2023-05-19T07:08:24;102690.09;;;11.20;100.00
70546;BME280;58098;51.680;5.134;2023-05-19T07:10:52;102681.16;;;11.24;100.00
70546;BME280;58098;51.680;5.134;2023-05-19T07:13:17;102674.97;;;11.43;100.00
70546;BME280;58098;51.680;5.134;2023-05-19T07:15:42;102685.97;;;11.65;100.00
70546;BME280;58098;51.680;5.134;2023-05-19T07:18:08;102684.13;;;11.67;100.00
70546;BME280;58098;51.680;5.134;2023-05-19T07:20:33;102680.19;;;11.75;100.00
70546;BME280;58098;51.680;5.134;2023-05-19T07:22:59;102673.28;;;11.74;100.00
70546;BME280;58098;51.680;5.134;2023-05-19T07:25:26;102684.53;;;11.92;100.00
70546;BME280;58098;51.680;5.134;2023-05-19T07:27:54;102684.16;;;11.98;100.00
70546;BME280;58098;51.680;5.134;2023-05-19T07:30:20;102669.47;;;12.11;100.00
70546;BME280;58098;51.680;5.134;2023-05-19T07:32:45;102679.59;;;12.33;100.00
70546;BME280;58098;51.680;5.134;2023-05-19T07:35:10;102682.34;;;12.45;100.00
70546;BME280;58098;51.680;5.134;2023-05-19T07:37:36;102679.25;;;12.69;100.00
70546;BME280;58098;51.680;5.134;2023-05-19T07:40:02;102664.19;;;12.72;100.00
70546;BME280;58098;51.680;5.134;2023-05-19T07:42:28;102674.41;;;12.77;100.00
70546;BME280;58098;51.680;5.134;2023-05-19T07:44:53;102682.69;;;12.99;100.00
70546;BME280;58098;51.680;5.134;2023-05-19T07:47:18;102673.28;;;13.24;100.00
70546;BME280;58098;51.680;5.134;2023-05-19T07:49:43;102668.69;;;13.42;100.00
70546;BME280;58098;51.680;5.134;2023-05-19T07:52:09;102685.25;;;13.71;100.00
70546;BME280;58098;51.680;5.134;2023-05-19T07:54:34;102691.94;;;14.03;100.00
70546;BME280;58098;51.680;5.134;2023-05-19T07:57:00;102695.97;;;14.09;100.00
70546;BME280;58098;51.680;5.134;2023-05-19T07:59:25;102684.72;;;14.33;100.00
70546;BME280;58098;51.680;5.134;2023-05-19T08:01:50;102678.44;;;14.36;100.00
70546;BME280;58098;51.680;5.134;2023-05-19T08:04:16;102673.19;;;14.36;100.00
70546;BME280;58098;51.680;5.134;2023-05-19T08:06:41;102668.66;;;14.77;100.00
70546;BME280;58098;51.680;5.134;2023-05-19T08:09:08;102678.13;;;14.92;100.00
70546;BME280;58098;51.680;5.134;2023-05-19T08:11:33;102673.94;;;15.28;100.00
70546;BME280;58098;51.680;5.134;2023-05-19T08:13:59;102671.84;;;15.33;100.00
70546;BME280;58098;51.680;5.134;2023-05-19T08:16:25;102675.84;;;15.26;100.00
70546;BME280;58098;51.680;5.134;2023-05-19T08:18:50;102668.47;;;15.56;100.00
70546;BME280;58098;51.680;5.134;2023-05-19T08:21:16;102659.44;;;15.47;100.00
70546;BME280;58098;51.680;5.134;2023-05-19T08:23:41;102666.69;;;15.93;100.00
70546;BME280;58098;51.680;5.134;2023-05-19T08:26:06;102669.47;;;16.26;100.00
70546;BME280;58098;51.680;5.134;2023-05-19T08:28:32;102653.00;;;16.35;100.00
70546;BME280;58098;51.680;5.134;2023-05-19T08:30:57;102670.28;;;16.39;100.00
70546;BME280;58098;51.680;5.134;2023-05-19T08:33:22;102655.88;;;16.32;100.00
70546;BME280;58098;51.680;5.134;2023-05-19T08:35:48;102656.53;;;16.81;100.00
70546;BME280;58098;51.680;5.134;2023-05-19T08:38:13;102658.16;;;17.61;100.00
70546;BME280;58098;51.680;5.134;2023-05-19T08:40:42;102654.31;;;17.65;100.00
70546;BME280;58098;51.680;5.134;2023-05-19T08:43:10;102657.88;;;17.87;100.00
70546;BME280;58098;51.680;5.134;2023-05-19T08:45:35;102645.13;;;17.92;100.00
70546;BME280;58098;51.680;5.134;2023-05-19T08:48:03;102651.69;;;18.40;100.00
70546;BME280;58098;51.680;5.134;2023-05-19T08:50:29;102638.72;;;18.37;100.00
70546;BME280;58098;51.680;5.134;2023-05-19T08:53:09;102639.47;;;18.80;100.00
70546;BME280;58098;51.680;5.134;2023-05-19T08:55:53;102646.22;;;19.15;100.00
70546;BME280;58098;51.680;5.134;2023-05-19T08:58:20;102632.72;;;19.18;100.00
70546;BME280;58098;51.680;5.134;2023-05-19T09:00:46;102633.72;;;19.26;100.00
70546;BME280;58098;51.680;5.134;2023-05-19T09:03:12;102623.81;;;18.88;100.00
70546;BME280;58098;51.680;5.134;2023-05-19T09:05:40;102631.31;;;19.23;100.00
70546;BME280;58098;51.680;5.134;2023-05-19T09:08:06;102626.06;;;19.63;100.00
70546;BME280;58098;51.680;5.134;2023-05-19T09:10:31;102619.03;;;19.43;100.00
70546;BME280;58098;51.680;5.134;2023-05-19T09:12:57;102619.34;;;19.19;100.00
70546;BME280;58098;51.680;5.134;2023-05-19T09:15:25;102634.53;;;19.57;100.00
70546;BME280;58098;51.680;5.134;2023-05-19T09:18:08;102623.75;;;20.17;100.00
70546;BME280;58098;51.680;5.134;2023-05-19T09:20:41;102616.19;;;20.70;100.00
70546;BME280;58098;51.680;5.134;2023-05-19T09:23:11;102612.47;;;20.54;100.00
70546;BME280;58098;51.680;5.134;2023-05-19T09:25:45;102619.53;;;20.72;100.00
70546;BME280;58098;51.680;5.134;2023-05-19T09:28:11;102617.16;;;20.69;100.00
70546;BME280;58098;51.680;5.134;2023-05-19T09:30:36;102619.00;;;20.50;100.00
70546;BME280;58098;51.680;5.134;2023-05-19T09:33:02;102609.09;;;20.52;100.00
70546;BME280;58098;51.680;5.134;2023-05-19T09:35:28;102607.31;;;20.23;98.81
70546;BME280;58098;51.680;5.134;2023-05-19T09:37:53;102607.28;;;20.52;100.00
70546;BME280;58098;51.680;5.134;2023-05-19T09:40:19;102598.59;;;20.60;100.00
70546;BME280;58098;51.680;5.134;2023-05-19T09:42:44;102611.72;;;20.71;100.00
70546;BME280;58098;51.680;5.134;2023-05-19T09:45:10;102600.00;;;20.64;96.74
70546;BME280;58098;51.680;5.134;2023-05-19T09:47:38;102614.56;;;20.40;92.14
70546;BME280;58098;51.680;5.134;2023-05-19T09:50:05;102611.19;;;20.00;86.29
70546;BME280;58098;51.680;5.134;2023-05-19T09:52:43;102587.03;;;20.13;97.99
70546;BME280;58098;51.680;5.134;2023-05-19T09:55:10;102616.06;;;20.53;98.14
70546;BME280;58098;51.680;5.134;2023-05-19T09:57:38;102606.00;;;20.66;100.00
70546;BME280;58098;51.680;5.134;2023-05-19T10:00:07;102616.66;;;20.93;100.00
70546;BME280;58098;51.680;5.134;2023-05-19T10:02:40;102609.56;;;20.84;90.24
70546;BME280;58098;51.680;5.134;2023-05-19T10:05:09;102594.81;;;21.45;100.00
70546;BME280;58098;51.680;5.134;2023-05-19T10:07:35;102596.03;;;21.68;95.90
70546;BME280;58098;51.680;5.134;2023-05-19T10:10:02;102595.19;;;21.50;79.57
70546;BME280;58098;51.680;5.134;2023-05-19T10:12:27;102602.63;;;21.92;72.16
70546;BME280;58098;51.680;5.134;2023-05-19T10:14:53;102601.31;;;22.31;69.72
70546;BME280;58098;51.680;5.134;2023-05-19T10:17:19;102600.28;;;22.67;74.74
70546;BME280;58098;51.680;5.134;2023-05-19T10:19:44;102602.16;;;22.31;61.81
70546;BME280;58098;51.680;5.134;2023-05-19T10:22:10;102594.72;;;22.17;63.11
70546;BME280;58098;51.680;5.134;2023-05-19T10:24:35;102593.25;;;22.23;78.39
70546;BME280;58098;51.680;5.134;2023-05-19T10:27:04;102582.16;;;22.71;68.95
70546;BME280;58098;51.680;5.134;2023-05-19T10:29:35;102571.66;;;22.69;66.46
70546;BME280;58098;51.680;5.134;2023-05-19T10:32:13;102593.22;;;22.58;60.36
70546;BME280;58098;51.680;5.134;2023-05-19T10:37:35;102578.94;;;22.85;64.98
70546;BME280;58098;51.680;5.134;2023-05-19T10:40:11;102592.31;;;22.32;58.87
70546;BME280;58098;51.680;5.134;2023-05-19T10:45:47;102571.16;;;22.99;67.36
70546;BME280;58098;51.680;5.134;2023-05-19T10:48:14;102567.94;;;22.88;69.67
70546;BME280;58098;51.680;5.134;2023-05-19T10:50:42;102575.69;;;22.73;58.21
70546;BME280;58098;51.680;5.134;2023-05-19T10:53:13;102576.22;;;22.77;65.02
70546;BME280;58098;51.680;5.134;2023-05-19T10:55:54;102570.66;;;22.96;62.45
70546;BME280;58098;51.680;5.134;2023-05-19T11:01:17;102576.13;;;22.94;59.46
70546;BME280;58098;51.680;5.134;2023-05-19T11:03:50;102560.75;;;23.80;66.39
70546;BME280;58098;51.680;5.134;2023-05-19T11:06:28;102578.59;;;23.88;57.88
70546;BME280;58098;51.680;5.134;2023-05-19T11:08:56;102565.13;;;24.29;63.69
70546;BME280;58098;51.680;5.134;2023-05-19T11:11:22;102558.06;;;23.80;55.63
70546;BME280;58098;51.680;5.134;2023-05-19T11:13:52;102549.59;;;23.93;54.33
70546;BME280;58098;51.680;5.134;2023-05-19T11:16:30;102552.06;;;23.62;56.67
70546;BME280;58098;51.680;5.134;2023-05-19T11:18:59;102558.00;;;23.40;52.49
70546;BME280;58098;51.680;5.134;2023-05-19T11:22:10;102564.22;;;23.56;53.60
70546;BME280;58098;51.680;5.134;2023-05-19T11:24:36;102562.75;;;23.70;53.91
70546;BME280;58098;51.680;5.134;2023-05-19T11:29:47;102551.56;;;23.67;50.68
70546;BME280;58098;51.680;5.134;2023-05-19T11:32:13;102554.28;;;23.99;52.40
70546;BME280;58098;51.680;5.134;2023-05-19T11:34:39;102552.09;;;23.94;48.18
70546;BME280;58098;51.680;5.134;2023-05-19T11:37:06;102556.44;;;24.03;49.02
70546;BME280;58098;51.680;5.134;2023-05-19T11:39:32;102548.41;;;23.95;49.14
70546;BME280;58098;51.680;5.134;2023-05-19T11:41:58;102546.94;;;23.85;51.90
70546;BME280;58098;51.680;5.134;2023-05-19T11:44:24;102541.44;;;23.70;49.72
70546;BME280;58098;51.680;5.134;2023-05-19T11:46:49;102531.06;;;24.48;54.83
70546;BME280;58098;51.680;5.134;2023-05-19T11:49:14;102549.22;;;24.60;50.44
70546;BME280;58098;51.680;5.134;2023-05-19T11:51:43;102548.06;;;24.55;48.05
70546;BME280;58098;51.680;5.134;2023-05-19T11:54:09;102538.78;;;24.18;46.23
70546;BME280;58098;51.680;5.134;2023-05-19T11:56:42;102536.53;;;24.62;47.66
70546;BME280;58098;51.680;5.134;2023-05-19T11:59:08;102526.84;;;25.08;46.89
70546;BME280;58098;51.680;5.134;2023-05-19T12:01:33;102530.34;;;25.39;46.58
70546;BME280;58098;51.680;5.134;2023-05-19T12:04:00;102527.00;;;25.68;45.56
70546;BME280;58098;51.680;5.134;2023-05-19T12:06:26;102537.41;;;25.86;43.08
70546;BME280;58098;51.680;5.134;2023-05-19T12:08:55;102523.16;;;26.74;42.44
70546;BME280;58098;51.680;5.134;2023-05-19T12:11:22;102514.00;;;26.69;37.63
70546;BME280;58098;51.680;5.134;2023-05-19T12:13:48;102521.69;;;26.43;36.39
70546;BME280;58098;51.680;5.134;2023-05-19T12:16:15;102523.63;;;25.74;37.37
70546;BME280;58098;51.680;5.134;2023-05-19T12:18:43;102525.88;;;25.32;37.29
70546;BME280;58098;51.680;5.134;2023-05-19T12:21:09;102522.97;;;25.41;38.36
70546;BME280;58098;51.680;5.134;2023-05-19T12:23:34;102517.78;;;25.17;37.04
70546;BME280;58098;51.680;5.134;2023-05-19T12:26:00;102517.88;;;26.00;39.05
70546;BME280;58098;51.680;5.134;2023-05-19T12:28:29;102523.16;;;26.45;37.48
70546;BME280;58098;51.680;5.134;2023-05-19T12:30:55;102527.41;;;26.40;36.64
70546;BME280;58098;51.680;5.134;2023-05-19T12:33:23;102516.75;;;26.32;36.17
70546;BME280;58098;51.680;5.134;2023-05-19T12:35:48;102514.34;;;27.10;37.39
70546;BME280;58098;51.680;5.134;2023-05-19T12:38:14;102507.38;;;26.65;34.47
70546;BME280;58098;51.680;5.134;2023-05-19T12:40:41;102504.69;;;27.30;36.78
70546;BME280;58098;51.680;5.134;2023-05-19T12:43:07;102499.72;;;27.12;34.15
70546;BME280;58098;51.680;5.134;2023-05-19T12:45:34;102490.22;;;27.67;36.17
70546;BME280;58098;51.680;5.134;2023-05-19T12:48:02;102494.53;;;28.17;34.13
70546;BME280;58098;51.680;5.134;2023-05-19T12:50:29;102476.03;;;28.28;35.57
70546;BME280;58098;51.680;5.134;2023-05-19T12:52:55;102483.09;;;28.36;34.05
70546;BME280;58098;51.680;5.134;2023-05-19T12:55:20;102486.31;;;29.00;32.78
70546;BME280;58098;51.680;5.134;2023-05-19T12:57:48;102481.69;;;30.13;32.35
70546;BME280;58098;51.680;5.134;2023-05-19T13:00:17;102476.94;;;30.15;30.47
70546;BME280;58098;51.680;5.134;2023-05-19T13:05:19;102476.53;;;30.05;31.39
70546;BME280;58098;51.680;5.134;2023-05-19T13:08:06;102474.16;;;30.61;34.10
70546;BME280;58098;51.680;5.134;2023-05-19T13:10:33;102469.91;;;30.08;31.06
70546;BME280;58098;51.680;5.134;2023-05-19T13:12:58;102474.59;;;30.45;31.24
70546;BME280;58098;51.680;5.134;2023-05-19T13:15:25;102463.88;;;30.12;29.85